Time;durP1;ratioP1;P1;durP2;ratioP2;P2;SDS_P1;SDS_P2;PMS_P1;PMS_P2;Temp;Humidity;BMP_temperature;BMP_pressure;BME280_temperature;BME280_humidity;BME280_pressure;Samples;Min_cycle;Max_cycle;Signal;HPM_P1;HPM_P2
2022/08/30 00:03:24;;;;;;;14.03;4.43;;;;;;;-145.18;100.00;46660.41;5030320;28;20032;-71
2022/08/30 00:05:49;;;;;;;9.57;4.67;;;;;;;-145.18;100.00;46660.41;5029527;28;20053;-71
2022/08/30 00:08:15;;;;;;;9.70;4.63;;;;;;;-145.18;100.00;46660.41;5030113;28;20044;-71
2022/08/30 00:10:41;;;;;;;8.70;5.53;;;;;;;-145.18;100.00;46660.41;5029448;28;20486;-71
2022/08/30 00:13:11;;;;;;;7.20;4.33;;;;;;;-145.18;100.00;46660.41;5030101;28;20084;-71
2022/08/30 00:15:36;;;;;;;12.47;4.93;;;;;;;-145.18;100.00;46660.41;5031213;28;20448;-71
2022/08/30 00:18:02;;;;;;;10.03;4.13;;;;;;;-145.18;100.00;46660.41;5034018;28;20121;-71
2022/08/30 00:20:30;;;;;;;9.47;4.50;;;;;;;-145.18;100.00;46660.41;5033186;28;20044;-71
2022/08/30 00:22:55;;;;;;;8.07;4.57;;;;;;;-145.18;100.00;46660.41;5033277;28;20041;-71
2022/08/30 00:25:22;;;;;;;8.63;4.83;;;;;;;-145.18;100.00;46660.41;5033256;28;20045;-71
2022/08/30 00:27:48;;;;;;;9.33;5.23;;;;;;;-145.18;100.00;46660.41;5033217;28;20033;-71
2022/08/30 00:30:15;;;;;;;9.07;4.40;;;;;;;-145.18;100.00;46660.41;5033418;28;20630;-71
2022/08/30 00:32:40;;;;;;;7.50;4.13;;;;;;;-145.18;100.00;46660.41;5032980;28;20091;-71
2022/08/30 00:35:08;;;;;;;9.90;4.77;;;;;;;-145.18;100.00;46660.41;5032997;28;20033;-71
2022/08/30 00:37:34;;;;;;;13.00;4.70;;;;;;;-145.18;100.00;46660.41;5032920;28;20536;-71
2022/08/30 00:39:59;;;;;;;10.23;4.63;;;;;;;-145.18;100.00;46660.41;5033213;28;20029;-71
2022/08/30 00:42:25;;;;;;;11.97;5.37;;;;;;;-145.18;100.00;46660.41;5033082;28;20060;-71
2022/08/30 00:44:51;;;;;;;8.67;4.90;;;;;;;-145.18;100.00;46660.41;5032347;28;20121;-71
2022/08/30 00:47:18;;;;;;;15.00;5.60;;;;;;;-145.18;100.00;46660.41;5035807;28;20060;-71
2022/08/30 00:49:46;;;;;;;10.43;5.43;;;;;;;-145.18;100.00;46660.41;5052757;28;20037;-71
2022/08/30 00:52:13;;;;;;;10.93;4.93;;;;;;;-145.18;100.00;46660.41;5052491;28;20478;-71
2022/08/30 00:54:41;;;;;;;8.77;5.13;;;;;;;-145.18;100.00;46660.41;5052261;28;20066;-71
2022/08/30 00:57:08;;;;;;;10.23;5.33;;;;;;;-145.18;100.00;46660.41;5052926;28;20558;-71
2022/08/30 00:59:34;;;;;;;11.80;5.17;;;;;;;-145.18;100.00;46660.41;5052243;28;20029;-71
2022/08/30 01:02:01;;;;;;;9.37;4.70;;;;;;;-145.18;100.00;46660.41;5052577;28;20379;-71
2022/08/30 01:04:28;;;;;;;10.70;4.87;;;;;;;-145.18;100.00;46660.41;5052414;28;20042;-71
2022/08/30 01:06:54;;;;;;;11.20;4.83;;;;;;;-145.18;100.00;46660.41;5052300;28;20048;-71
2022/08/30 01:09:20;;;;;;;9.33;5.23;;;;;;;-145.18;100.00;46660.41;5052330;28;20531;-71
2022/08/30 01:11:46;;;;;;;12.53;5.37;;;;;;;-145.18;100.00;46660.41;5052441;28;20033;-71
2022/08/30 01:14:14;;;;;;;11.30;5.40;;;;;;;-145.18;100.00;46660.41;5052067;28;20028;-71
2022/08/30 01:16:42;;;;;;;14.10;5.30;;;;;;;-145.18;100.00;46660.41;5051957;28;20116;-71
2022/08/30 01:19:39;;;;;;;9.87;5.20;;;;;;;-145.18;100.00;46660.41;5052539;28;20036;-71
2022/08/30 01:22:19;;;;;;;10.33;4.93;;;;;;;-145.18;100.00;46660.41;5052341;28;20393;-71
2022/08/30 01:24:47;;;;;;;12.90;4.80;;;;;;;-145.18;100.00;46660.41;5051973;28;20102;-71
2022/08/30 01:27:15;;;;;;;9.17;5.30;;;;;;;-145.18;100.00;46660.41;5051624;28;20037;-71
2022/08/30 01:29:43;;;;;;;12.13;5.47;;;;;;;-145.18;100.00;46660.41;5051975;28;20036;-71
2022/08/30 01:32:17;;;;;;;8.70;4.73;;;;;;;-145.18;100.00;46660.41;5052202;28;20037;-71
2022/08/30 01:34:43;;;;;;;8.13;4.93;;;;;;;-145.18;100.00;46660.41;5051924;28;20033;-71
2022/08/30 01:37:08;;;;;;;10.27;5.90;;;;;;;-145.18;100.00;46660.41;5052131;28;20041;-71
2022/08/30 01:39:33;;;;;;;8.30;4.90;;;;;;;-145.18;100.00;46660.41;5034030;28;20025;-71
2022/08/30 01:42:00;;;;;;;9.17;5.00;;;;;;;-145.18;100.00;46660.41;5051771;28;20029;-71
2022/08/30 01:44:26;;;;;;;12.60;5.43;;;;;;;-145.18;100.00;46660.41;5051489;28;20049;-71
2022/08/30 01:46:51;;;;;;;10.37;5.67;;;;;;;-145.18;100.00;46660.41;5051740;28;20033;-71
2022/08/30 01:49:19;;;;;;;8.43;5.73;;;;;;;-145.18;100.00;46660.41;5051460;28;20052;-71
2022/08/30 01:51:44;;;;;;;11.23;5.97;;;;;;;-145.18;100.00;46660.41;5051273;28;20047;-71
2022/08/30 01:54:09;;;;;;;12.07;6.30;;;;;;;-145.18;100.00;46660.41;5051387;28;20420;-71
2022/08/30 01:56:35;;;;;;;6.40;5.53;;;;;;;-145.18;100.00;46660.41;5051178;28;20041;-71
2022/08/30 01:59:00;;;;;;;7.70;5.50;;;;;;;-145.18;100.00;46660.41;5051466;28;20033;-71
2022/08/30 02:04:02;;;;;;;11.73;6.05;;;;;;;-145.18;100.00;46660.41;5091749;23;20053;-71
2022/08/30 02:06:27;;;;;;;8.27;6.37;;;;;;;-145.18;100.00;46660.41;5029273;28;20065;-70
2022/08/30 02:08:53;;;;;;;9.20;6.33;;;;;;;-145.18;100.00;46660.41;5030868;28;20493;-71
2022/08/30 02:11:18;;;;;;;11.63;6.53;;;;;;;-145.18;100.00;46660.41;5031394;28;20125;-70
2022/08/30 02:13:45;;;;;;;9.17;6.00;;;;;;;-145.18;100.00;46660.41;5030836;28;20034;-70
2022/08/30 02:16:14;;;;;;;10.50;6.50;;;;;;;-145.18;100.00;46660.41;5031179;28;20052;-70
2022/08/30 02:18:40;;;;;;;11.07;6.13;;;;;;;-145.18;100.00;46660.41;5030800;28;20111;-70
2022/08/30 02:21:06;;;;;;;10.30;6.77;;;;;;;-145.18;100.00;46660.41;5031651;28;20485;-70
2022/08/30 02:23:32;;;;;;;10.93;6.73;;;;;;;-145.18;100.00;46660.41;5030517;28;20064;-70
2022/08/30 02:25:58;;;;;;;11.60;6.90;;;;;;;-145.18;100.00;46660.41;5031379;28;20033;-70
2022/08/30 02:28:24;;;;;;;9.60;6.73;;;;;;;-145.18;100.00;46660.41;5030726;28;20426;-70
2022/08/30 02:30:50;;;;;;;11.30;6.70;;;;;;;-145.18;100.00;46660.41;5031064;28;20037;-70
2022/08/30 02:33:16;;;;;;;9.93;7.20;;;;;;;-145.18;100.00;46660.41;5030906;28;20113;-70
2022/08/30 02:35:41;;;;;;;12.17;7.20;;;;;;;-145.18;100.00;46660.41;5030858;28;20119;-70
2022/08/30 02:38:07;;;;;;;11.77;7.57;;;;;;;-145.18;100.00;46660.41;5029823;28;20037;-70
2022/08/30 02:40:33;;;;;;;9.90;7.00;;;;;;;-145.18;100.00;46660.41;5030827;28;20397;-70
2022/08/30 02:42:59;;;;;;;12.30;7.23;;;;;;;-145.18;100.00;46660.41;5030812;28;20041;-70
2022/08/30 02:45:24;;;;;;;12.50;7.50;;;;;;;-145.18;100.00;46660.41;5030961;28;20040;-70
2022/08/30 02:47:50;;;;;;;11.87;7.60;;;;;;;-145.18;100.00;46660.41;5030343;28;20057;-71
2022/08/30 02:50:17;;;;;;;14.13;7.07;;;;;;;-145.18;100.00;46660.41;5031071;28;20241;-73
2022/08/30 02:52:42;;;;;;;12.13;8.17;;;;;;;-145.18;100.00;46660.41;5030355;28;20117;-70
2022/08/30 02:55:08;;;;;;;9.70;7.77;;;;;;;-145.18;100.00;46660.41;5030568;28;20477;-71
2022/08/30 02:57:34;;;;;;;12.00;7.90;;;;;;;-145.18;100.00;46660.41;5030390;28;20037;-72
2022/08/30 03:00:00;;;;;;;12.63;8.17;;;;;;;-145.18;100.00;46660.41;5030589;28;20045;-70
2022/08/30 03:02:26;;;;;;;10.97;8.70;;;;;;;-145.18;100.00;46660.41;5020666;28;20034;-70
2022/08/30 03:04:52;;;;;;;13.83;8.20;;;;;;;-145.18;100.00;46658.44;5009968;28;20340;-70
2022/08/30 03:07:18;;;;;;;12.90;8.77;;;;;;;-145.18;100.00;46660.41;5011074;28;20036;-70
2022/08/30 03:09:43;;;;;;;11.40;8.73;;;;;;;-145.18;100.00;46658.44;5010167;28;20022;-70
2022/08/30 03:12:09;;;;;;;10.80;9.00;;;;;;;-145.18;100.00;46660.41;5010918;28;20037;-71
2022/08/30 03:14:37;;;;;;;10.73;8.23;;;;;;;-145.18;100.00;46660.41;4992410;28;20037;-71
2022/08/30 03:17:05;;;;;;;12.40;9.47;;;;;;;-145.18;100.00;46658.44;5010708;28;20036;-70
2022/08/30 03:19:32;;;;;;;16.73;9.13;;;;;;;-145.18;100.00;46660.41;5011941;28;20037;-70
2022/08/30 03:21:58;;;;;;;14.77;8.73;;;;;;;-145.18;100.00;46658.44;4990996;28;20061;-70
2022/08/30 03:24:24;;;;;;;11.50;8.80;;;;;;;-145.18;100.00;46660.41;5022056;28;20117;-70
2022/08/30 03:26:50;;;;;;;12.03;9.30;;;;;;;-145.18;100.00;46658.44;5029805;28;20037;-72
2022/08/30 03:29:15;;;;;;;12.60;9.30;;;;;;;-145.18;100.00;46660.41;5029837;28;20028;-70
2022/08/30 03:31:42;;;;;;;11.00;8.90;;;;;;;-145.18;100.00;46660.41;5030184;28;20784;-70
2022/08/30 03:34:09;;;;;;;13.80;9.10;;;;;;;-145.18;100.00;46660.41;5029846;28;20133;-70
2022/08/30 03:36:38;;;;;;;15.73;9.13;;;;;;;-145.18;100.00;46660.41;5029940;28;20056;-70
2022/08/30 03:39:05;;;;;;;11.17;9.07;;;;;;;-145.18;100.00;46660.41;5029707;28;20069;-70
2022/08/30 03:41:31;;;;;;;10.03;8.87;;;;;;;-145.18;100.00;46658.44;5030217;28;20032;-72
2022/08/30 03:43:57;;;;;;;15.93;10.13;;;;;;;-145.18;100.00;46660.41;5029741;28;20029;-70
2022/08/30 03:46:23;;;;;;;14.80;9.73;;;;;;;-145.18;100.00;46660.41;5009613;28;20034;-70
2022/08/30 03:48:48;;;;;;;17.57;9.60;;;;;;;-145.18;100.00;46660.41;5009782;28;20077;-72
2022/08/30 03:51:14;;;;;;;12.83;9.90;;;;;;;-145.18;100.00;46660.41;5014341;28;20041;-70
2022/08/30 03:53:39;;;;;;;15.10;9.90;;;;;;;-145.18;100.00;46658.44;5013663;28;20429;-70
2022/08/30 03:56:05;;;;;;;13.67;10.20;;;;;;;-145.18;100.00;46660.41;5014210;28;20441;-70
2022/08/30 03:58:30;;;;;;;13.43;10.37;;;;;;;-145.18;100.00;46660.41;5013684;28;20081;-70
2022/08/30 04:00:56;;;;;;;15.67;10.87;;;;;;;-145.18;100.00;46660.41;5013781;28;20065;-71
2022/08/30 04:03:24;;;;;;;15.73;11.13;;;;;;;-145.18;100.00;46660.41;5013322;28;20062;-71
2022/08/30 04:05:52;;;;;;;12.87;10.40;;;;;;;-145.18;100.00;46656.50;5013744;28;20048;-72
2022/08/30 04:08:19;;;;;;;14.63;10.73;;;;;;;-145.18;100.00;46660.41;5013585;28;20526;-71
2022/08/30 04:10:44;;;;;;;13.87;10.80;;;;;;;-145.18;100.00;46656.50;5013426;28;20038;-70
2022/08/30 04:13:10;;;;;;;18.33;11.50;;;;;;;-145.18;100.00;46658.44;5013143;28;20590;-71
2022/08/30 04:15:35;;;;;;;15.63;12.30;;;;;;;-145.18;100.00;46660.41;5013867;28;20056;-70
2022/08/30 04:18:00;;;;;;;12.63;10.63;;;;;;;-145.18;100.00;46656.50;5013677;28;20041;-70
2022/08/30 04:20:26;;;;;;;15.67;11.37;;;;;;;-145.18;100.00;46660.41;5026838;28;20442;-70
2022/08/30 04:22:51;;;;;;;12.40;10.50;;;;;;;-145.18;100.00;46658.44;5031340;28;20450;-70
2022/08/30 04:25:17;;;;;;;16.93;10.97;;;;;;;-145.18;100.00;46660.41;5013950;28;20541;-70
2022/08/30 04:27:44;;;;;;;17.27;11.57;;;;;;;-145.18;100.00;46656.50;5031940;28;20026;-70
2022/08/30 04:30:11;;;;;;;12.97;11.03;;;;;;;-145.18;100.00;46656.50;5031637;28;20029;-70
2022/08/30 04:32:37;;;;;;;12.07;10.30;;;;;;;-145.18;100.00;46656.50;5031917;28;20041;-70
2022/08/30 04:35:04;;;;;;;14.73;11.70;;;;;;;-145.18;100.00;46660.41;5028468;28;20025;-71
2022/08/30 04:37:29;;;;;;;14.73;11.17;;;;;;;-145.18;100.00;46658.44;5028620;28;20113;-71
2022/08/30 04:39:59;;;;;;;16.20;11.70;;;;;;;-145.18;100.00;46660.41;5028840;28;20111;-71
2022/08/30 04:42:30;;;;;;;12.90;11.50;;;;;;;-145.18;100.00;46660.41;5012142;28;20029;-71
2022/08/30 04:44:55;;;;;;;14.63;11.63;;;;;;;-145.18;100.00;46656.50;5017179;28;20172;-71
2022/08/30 04:47:21;;;;;;;16.03;12.10;;;;;;;-145.18;100.00;46660.41;5024078;28;20496;-71
2022/08/30 04:49:46;;;;;;;14.77;11.93;;;;;;;-145.18;100.00;46660.41;5011007;28;20053;-71
2022/08/30 04:52:11;;;;;;;14.83;11.77;;;;;;;-145.18;100.00;46654.53;5029898;28;20045;-71
2022/08/30 04:54:37;;;;;;;17.63;12.17;;;;;;;-145.18;100.00;46660.41;5031314;28;20025;-72
2022/08/30 04:57:04;;;;;;;16.50;12.77;;;;;;;-145.18;100.00;46660.41;5030575;28;20454;-71
2022/08/30 04:59:30;;;;;;;14.33;11.20;;;;;;;-145.18;100.00;46660.41;5022112;28;20034;-71
2022/08/30 05:01:55;;;;;;;14.23;12.20;;;;;;;-145.18;100.00;46660.41;4993985;28;20109;-70
2022/08/30 05:04:20;;;;;;;16.83;11.80;;;;;;;-145.18;100.00;46660.41;5011956;28;20050;-70
2022/08/30 05:06:46;;;;;;;17.23;12.37;;;;;;;-145.18;100.00;46660.41;5012826;28;20438;-71
2022/08/30 05:09:11;;;;;;;15.20;12.80;;;;;;;-145.18;100.00;46658.44;5012511;28;20034;-72
2022/08/30 05:11:37;;;;;;;15.53;12.37;;;;;;;-145.18;100.00;46660.41;5012627;28;20029;-71
2022/08/30 05:14:03;;;;;;;13.67;12.23;;;;;;;-145.18;100.00;46658.44;5012529;28;20038;-71
2022/08/30 05:16:28;;;;;;;17.33;12.17;;;;;;;-145.18;100.00;46660.41;5012783;28;20054;-72
2022/08/30 05:18:54;;;;;;;21.63;13.43;;;;;;;-145.18;100.00;46660.41;4999543;28;20043;-72
2022/08/30 05:21:22;;;;;;;15.50;12.13;;;;;;;-145.18;100.00;46660.41;5015614;28;20056;-71
2022/08/30 05:23:49;;;;;;;18.33;12.93;;;;;;;-145.18;100.00;46660.41;5024262;28;20029;-71
2022/08/30 05:26:23;;;;;;;20.63;13.33;;;;;;;-145.18;100.00;46658.44;5032010;28;20041;-72
2022/08/30 05:28:48;;;;;;;16.77;12.60;;;;;;;-145.18;100.00;46660.41;5024985;28;20026;-72
2022/08/30 05:31:18;;;;;;;17.03;12.47;;;;;;;-145.18;100.00;46660.41;5011690;28;20541;-72
2022/08/30 05:33:45;;;;;;;15.03;12.50;;;;;;;-145.18;100.00;46660.41;5011675;28;20041;-72
2022/08/30 05:36:12;;;;;;;16.80;12.70;;;;;;;-145.18;100.00;46660.41;5012337;28;20371;-72
2022/08/30 05:38:38;;;;;;;19.40;13.10;;;;;;;-145.18;100.00;46660.41;5011521;28;20422;-72
2022/08/30 05:41:03;;;;;;;17.70;13.50;;;;;;;-145.18;100.00;46660.41;5012607;28;20113;-72
2022/08/30 05:43:30;;;;;;;13.90;11.70;;;;;;;-145.18;100.00;46660.41;5011797;28;20080;-72
2022/08/30 05:46:01;;;;;;;15.13;12.13;;;;;;;-145.18;100.00;46660.41;5012019;28;20045;-72
2022/08/30 05:48:27;;;;;;;17.97;13.57;;;;;;;-145.18;100.00;46660.41;5008225;28;20034;-72
2022/08/30 05:51:11;;;;;;;18.10;14.27;;;;;;;-145.18;100.00;46660.41;5010304;28;20095;-72
2022/08/30 05:53:37;;;;;;;22.07;13.87;;;;;;;-145.18;100.00;46658.44;5011488;28;20473;-72
2022/08/30 05:56:05;;;;;;;16.07;13.37;;;;;;;-145.18;100.00;46660.41;5025030;28;20083;-72
2022/08/30 05:58:31;;;;;;;16.30;13.40;;;;;;;-145.18;100.00;46660.41;5031179;28;20029;-72
2022/08/30 06:00:57;;;;;;;17.23;13.20;;;;;;;-145.18;100.00;46660.41;5019278;28;20327;-72
2022/08/30 06:03:23;;;;;;;15.03;12.60;;;;;;;-145.18;100.00;46660.41;5010936;28;20601;-72
2022/08/30 06:05:48;;;;;;;18.27;13.13;;;;;;;-145.18;100.00;46660.41;5009124;28;20088;-72
2022/08/30 06:08:15;;;;;;;14.80;12.53;;;;;;;-145.18;100.00;46629.13;5008688;28;20050;-72
2022/08/30 06:10:40;;;;;;;20.00;13.37;;;;;;;-145.18;100.00;46625.22;5012555;28;20045;-72
2022/08/30 06:13:05;;;;;;;16.73;13.30;;;;;;;-145.18;100.00;46656.50;5031548;28;20476;-72
2022/08/30 06:15:31;;;;;;;18.23;12.70;;;;;;;-145.18;100.00;46625.22;5028347;28;20041;-72
2022/08/30 06:17:56;;;;;;;19.03;12.13;;;;;;;-145.18;100.00;46625.22;5010086;28;20054;-72
2022/08/30 06:20:22;;;;;;;19.43;13.20;;;;;;;-145.18;100.00;46625.22;5010887;28;20034;-72
2022/08/30 06:22:47;;;;;;;16.23;12.53;;;;;;;-145.18;100.00;46629.13;5007480;28;20487;-72
2022/08/30 06:25:15;;;;;;;16.73;11.83;;;;;;;-145.18;100.00;46629.13;5009864;28;20446;-72
2022/08/30 06:27:41;;;;;;;18.97;12.20;;;;;;;-145.18;100.00;46625.22;5011383;28;20041;-72
2022/08/30 06:30:09;;;;;;;15.47;11.53;;;;;;;-145.18;100.00;46627.19;5010989;28;20092;-72
2022/08/30 06:32:35;;;;;;;13.07;11.20;;;;;;;-145.18;100.00;46627.19;5008464;28;20454;-72
2022/08/30 06:35:01;;;;;;;19.50;11.90;;;;;;;-145.18;100.00;46629.13;5010483;28;20549;-72
2022/08/30 06:37:26;;;;;;;18.73;11.47;;;;;;;-145.18;100.00;46627.19;5011386;28;20112;-72
2022/08/30 06:39:52;;;;;;;15.97;11.10;;;;;;;-145.18;100.00;46625.22;5010598;28;20036;-72
2022/08/30 06:42:17;;;;;;;15.30;11.10;;;;;;;-145.18;100.00;46627.19;4993672;28;20113;-72
2022/08/30 06:44:44;;;;;;;16.37;10.77;;;;;;;-145.18;100.00;46633.06;5010480;28;20104;-72
2022/08/30 06:47:09;;;;;;;12.50;10.23;;;;;;;-145.18;100.00;46633.06;5009779;28;20138;-71
2022/08/30 06:49:35;;;;;;;12.23;10.27;;;;;;;-145.18;100.00;46629.13;4993350;28;20487;-72
2022/08/30 06:52:00;;;;;;;14.00;9.93;;;;;;;-145.18;100.00;46625.22;5011869;28;20478;-72
2022/08/30 06:54:26;;;;;;;12.83;10.30;;;;;;;-145.18;100.00;46633.06;5012394;28;20037;-71
2022/08/30 06:56:52;;;;;;;13.63;9.83;;;;;;;-145.18;100.00;46633.06;5013143;28;20112;-72
2022/08/30 06:59:17;;;;;;;13.07;9.60;;;;;;;-145.18;100.00;46635.00;5020138;28;20038;-72
2022/08/30 07:01:44;;;;;;;14.83;9.77;;;;;;;-145.18;100.00;46635.00;5011086;28;20030;-72
2022/08/30 07:04:09;;;;;;;15.33;9.90;;;;;;;-145.18;100.00;46638.91;5010502;28;20053;-72
2022/08/30 07:06:35;;;;;;;10.20;8.60;;;;;;;-145.18;100.00;46636.94;5011439;28;20049;-72
2022/08/30 07:09:00;;;;;;;11.27;9.33;;;;;;;-145.18;100.00;46636.94;5010448;28;20093;-72
2022/08/30 07:11:36;;;;;;;11.27;9.07;;;;;;;-145.18;100.00;46640.88;4993561;28;20038;-72
2022/08/30 07:14:03;;;;;;;11.18;8.40;;;;;;;-145.18;100.00;46638.91;5010555;28;20048;-71
2022/08/30 07:16:29;;;;;;;10.80;8.93;;;;;;;-145.18;100.00;46636.94;5011140;28;20030;-72
2022/08/30 07:18:55;;;;;;;9.43;7.90;;;;;;;-145.18;100.00;46644.78;5010159;28;20026;-72
2022/08/30 07:21:23;;;;;;;9.27;8.07;;;;;;;-145.18;100.00;46640.88;5002483;28;20041;-72
2022/08/30 07:23:49;;;;;;;10.27;8.67;;;;;;;-145.18;100.00;46644.78;4990470;28;20117;-72
2022/08/30 07:26:17;;;;;;;11.53;7.37;;;;;;;-145.18;100.00;46648.69;4991255;28;20125;-72
2022/08/30 07:28:44;;;;;;;9.30;7.27;;;;;;;-145.18;100.00;46644.78;5006600;28;20032;-72
2022/08/30 07:31:10;;;;;;;8.47;7.30;;;;;;;-145.18;100.00;46648.69;5011184;28;20038;-72
2022/08/30 07:33:36;;;;;;;7.87;7.07;;;;;;;-145.18;100.00;46646.72;4991494;28;20030;-72
2022/08/30 07:36:03;;;;;;;10.17;7.13;;;;;;;-145.18;100.00;46650.63;4993346;28;20052;-72
2022/08/30 07:38:29;;;;;;;9.33;7.20;;;;;;;-145.18;100.00;46654.53;4991301;28;20778;-72
2022/08/30 07:40:57;;;;;;;10.63;5.97;;;;;;;-145.18;100.00;46660.41;5003640;28;20136;-72
2022/08/30 07:43:23;;;;;;;9.60;6.23;;;;;;;-145.18;100.00;46654.53;5008675;28;20038;-72
2022/08/30 07:45:48;;;;;;;7.87;6.07;;;;;;;-145.18;100.00;46662.34;5010010;28;20127;-72
2022/08/30 07:48:14;;;;;;;8.97;5.90;;;;;;;-145.18;100.00;46660.41;5010487;28;20040;-72
2022/08/30 07:50:44;;;;;;;6.80;5.07;;;;;;;-145.18;100.00;46662.34;5006829;28;20095;-72
2022/08/30 07:53:10;;;;;;;9.27;5.80;;;;;;;-145.18;100.00;46666.25;5010200;28;20482;-72
2022/08/30 07:55:35;;;;;;;5.97;5.37;;;;;;;-145.18;100.00;46660.41;5006116;28;20088;-72
2022/08/30 07:58:01;;;;;;;12.33;5.40;;;;;;;-145.18;100.00;46650.63;5010290;28;20042;-72
2022/08/30 08:00:26;;;;;;;8.23;5.07;;;;;;;-145.18;100.00;46646.72;5010013;28;20465;-72
2022/08/30 08:02:51;;;;;;;6.43;5.23;;;;;;;-145.18;100.00;46631.09;4999521;28;20026;-72
2022/08/30 08:05:17;;;;;;;7.80;5.10;;;;;;;-145.18;100.00;46635.00;5009800;28;20049;-72
2022/08/30 08:07:42;;;;;;;9.40;5.10;;;;;;;-145.18;100.00;46609.59;5010469;28;20040;-72
2022/08/30 08:10:08;;;;;;;6.03;4.70;;;;;;;-145.18;100.00;46570.53;5009959;28;20033;-71
2022/08/30 08:12:35;;;;;;;7.30;5.40;;;;;;;-145.18;100.00;46580.31;5009980;28;20034;-72
2022/08/30 08:15:00;;;;;;;13.00;5.40;;;;;;;-145.18;100.00;46578.34;5009696;28;20112;-71
2022/08/30 08:17:26;;;;;;;15.20;5.00;;;;;;;-145.18;100.00;46564.69;5010086;28;20554;-71
2022/08/30 08:19:51;;;;;;;8.70;4.70;;;;;;;-145.18;100.00;46535.38;5008282;28;20034;-72
2022/08/30 08:22:17;;;;;;;7.07;4.33;;;;;;;-145.18;100.00;46531.47;5009495;28;20096;-71
2022/08/30 08:24:42;;;;;;;7.27;4.27;;;;;;;-145.18;100.00;46529.53;5009015;28;20045;-71
2022/08/30 08:27:07;;;;;;;4.87;3.40;;;;;;;-145.18;100.00;46537.34;5004638;28;20066;-71
2022/08/30 08:29:33;;;;;;;10.07;3.70;;;;;;;-145.18;100.00;46541.25;4991448;28;20049;-70
2022/08/30 08:31:59;;;;;;;4.60;3.80;;;;;;;-145.18;100.00;46543.19;5009900;28;20037;-71
2022/08/30 08:34:26;;;;;;;4.93;3.23;;;;;;;-145.18;100.00;46543.19;5009544;28;20490;-71
2022/08/30 08:36:51;;;;;;;5.67;2.40;;;;;;;-145.18;100.00;46541.25;5011625;28;20034;-71
2022/08/30 08:39:17;;;;;;;5.07;2.57;;;;;;;-145.18;100.00;46551.00;5013606;28;20409;-71
2022/08/30 08:42:05;;;;;;;3.33;2.37;;;;;;;-145.18;100.00;46584.22;5013378;28;20833;-71
2022/08/30 08:44:52;;;;;;;5.23;2.33;;;;;;;-145.18;100.00;46605.69;5013052;28;20061;-71
2022/08/30 08:47:40;;;;;;;3.13;2.40;;;;;;;-145.18;100.00;46582.25;5013481;28;20057;-71
2022/08/30 08:50:11;;;;;;;3.73;1.70;;;;;;;-145.18;100.00;46603.75;5012568;28;20498;-71
2022/08/30 08:55:46;;;;;;;3.17;1.60;;;;;;;-145.18;100.00;46611.56;5013262;28;20112;-71
2022/08/30 08:58:24;;;;;;;7.77;2.00;;;;;;;-145.18;100.00;46709.22;5013157;28;20173;-71
2022/08/30 09:00:50;;;;;;;4.30;1.80;;;;;;;-145.18;100.00;46672.13;5013252;28;20087;-71
2022/08/30 09:03:19;;;;;;;3.43;2.00;;;;;;;-145.18;100.00;46722.91;5012967;28;20057;-70
2022/08/30 09:05:46;;;;;;;4.83;3.33;;;;;;;-145.18;100.00;46996.38;4994784;28;20176;-70
2022/08/30 09:08:15;;;;;;;3.07;2.00;;;;;;;-145.18;100.00;47142.91;5009842;28;20037;-71
2022/08/30 09:10:51;;;;;;;6.13;1.83;;;;;;;-145.18;100.00;47207.38;5012863;28;20371;-71
2022/08/30 09:13:17;;;;;;;2.78;1.70;;;;;;;-145.18;100.00;47193.69;5013076;28;20544;-71
2022/08/30 09:15:43;;;;;;;3.80;1.60;;;;;;;-145.18;100.00;47176.09;5012876;28;20429;-71
2022/08/30 09:18:08;;;;;;;3.87;1.60;;;;;;;-145.18;100.00;47152.66;5013076;28;20036;-71
2022/08/30 09:20:40;;;;;;;3.57;1.80;;;;;;;-145.18;100.00;47162.44;5012606;28;20061;-71
2022/08/30 09:23:14;;;;;;;3.83;1.57;;;;;;;-145.18;100.00;47119.47;5013126;28;20489;-71
2022/08/30 09:25:59;;;;;;;3.10;1.70;;;;;;;-145.18;100.00;47125.31;5012165;28;20537;-71
2022/08/30 09:28:27;;;;;;;2.83;1.70;;;;;;;-145.18;100.00;47103.81;5012931;28;20038;-71
2022/08/30 09:31:03;;;;;;;7.77;1.80;;;;;;;-145.18;100.00;47097.97;5012208;28;20042;-71
2022/08/30 09:33:29;;;;;;;8.47;1.83;;;;;;;-145.18;100.00;47074.53;5012561;28;20482;-71
2022/08/30 09:35:56;;;;;;;4.70;1.77;;;;;;;-145.18;100.00;47076.47;5012177;28;20083;-71
2022/08/30 09:38:32;;;;;;;3.30;1.93;;;;;;;-145.18;100.00;47043.28;5012391;28;20079;-71
2022/08/30 09:41:01;;;;;;;3.43;1.57;;;;;;;-145.18;100.00;47055.00;5012181;28;20308;-71
2022/08/30 09:43:26;;;;;;;3.43;1.50;;;;;;;-145.18;100.00;47058.91;5011967;28;20044;-71
2022/08/30 09:45:58;;;;;;;4.17;1.50;;;;;;;-145.18;100.00;47056.94;5012153;28;20049;-71
2022/08/30 09:48:43;;;;;;;4.07;1.63;;;;;;;-145.18;100.00;47051.09;5012486;28;20104;-71
2022/08/30 09:51:09;;;;;;;4.93;1.83;;;;;;;-145.18;100.00;47051.09;5012249;28;20034;-71
2022/08/30 09:53:41;;;;;;;8.13;1.87;;;;;;;-145.18;100.00;47047.19;5012295;28;20425;-71
2022/08/30 09:56:11;;;;;;;7.70;1.80;;;;;;;-145.18;100.00;47043.28;5011843;28;20034;-71
2022/08/30 09:58:53;;;;;;;5.80;1.70;;;;;;;-145.18;100.00;47049.13;5012134;28;20036;-71
2022/08/30 10:01:29;;;;;;;2.10;1.50;;;;;;;-145.18;100.00;47047.19;5012214;28;20027;-71
2022/08/30 10:04:03;;;;;;;6.10;1.70;;;;;;;-145.18;100.00;47047.19;5007171;28;20046;-71
2022/08/30 10:06:44;;;;;;;3.13;1.87;;;;;;;-145.18;100.00;47051.09;5002602;28;20065;-71
2022/08/30 10:09:48;;;;;;;3.63;1.63;;;;;;;-145.18;100.00;47047.19;4999844;28;20363;-71
2022/08/30 10:12:36;;;;;;;3.97;2.17;;;;;;;-145.18;100.00;47043.28;4987013;28;20049;-71
2022/08/30 10:15:14;;;;;;;4.17;1.40;;;;;;;-145.18;100.00;47027.63;5001388;28;20390;-71
2022/08/30 10:18:06;;;;;;;5.90;1.77;;;;;;;-145.18;100.00;47041.31;5008569;28;20044;-71
2022/08/30 10:20:36;;;;;;;5.73;1.50;;;;;;;-145.18;100.00;47055.00;5011400;28;20236;-71
2022/08/30 10:23:15;;;;;;;8.57;1.77;;;;;;;-145.18;100.00;47039.34;5011524;28;20488;-71
2022/08/30 10:25:53;;;;;;;8.37;1.43;;;;;;;-145.18;100.00;47043.28;5011409;28;20071;-71
2022/08/30 10:28:29;;;;;;;2.77;1.40;;;;;;;-145.18;100.00;47019.81;5011927;28;20022;-71
2022/08/30 10:31:03;;;;;;;3.87;1.50;;;;;;;-145.18;100.00;47033.50;5011403;28;20034;-71
2022/08/30 10:33:36;;;;;;;4.10;1.37;;;;;;;-145.18;100.00;47025.69;5011633;28;20033;-71
2022/08/30 10:36:05;;;;;;;2.43;1.50;;;;;;;-145.18;100.00;47023.72;5011367;28;20033;-71
2022/08/30 10:38:36;;;;;;;5.40;1.57;;;;;;;-145.18;100.00;47033.50;5011291;28;20034;-71
2022/08/30 10:41:26;;;;;;;2.80;1.37;;;;;;;-145.18;100.00;47035.44;5011106;28;20041;-72
2022/08/30 10:44:14;;;;;;;3.67;1.30;;;;;;;-145.18;100.00;47045.22;4998343;28;20041;-71
2022/08/30 10:47:07;;;;;;;6.00;1.40;;;;;;;-145.18;100.00;47039.34;4996596;28;20038;-71
2022/08/30 10:49:38;;;;;;;1.93;1.20;;;;;;;-145.18;100.00;47031.53;5001884;28;20026;-71
2022/08/30 10:52:27;;;;;;;5.73;1.60;;;;;;;-145.18;100.00;47029.59;5004973;28;20136;-71
2022/08/30 10:55:17;;;;;;;4.67;1.30;;;;;;;-145.18;100.00;47017.88;5001183;28;20081;-71
2022/08/30 10:57:44;;;;;;;5.13;1.30;;;;;;;-145.18;100.00;47015.91;5005894;28;20033;-71
2022/08/30 11:00:15;;;;;;;4.43;1.60;;;;;;;-145.18;100.00;47015.91;5010130;28;20056;-71
2022/08/30 11:02:55;;;;;;;3.80;1.50;;;;;;;-145.18;100.00;47021.78;5010839;28;20026;-71
2022/08/30 11:05:52;;;;;;;4.00;1.23;;;;;;;-145.18;100.00;47012.00;5010853;28;20030;-71
2022/08/30 11:08:24;;;;;;;3.40;1.57;;;;;;;-145.18;100.00;46992.47;4958664;28;20044;-70
2022/08/30 11:11:21;;;;;;;2.53;1.45;;;;;;;-145.18;100.00;46992.47;5010427;28;20393;-71
2022/08/30 11:13:48;;;;;;;3.30;1.35;;;;;;;-145.18;100.00;46988.56;5010533;28;20109;-71
2022/08/30 11:16:17;;;;;;;3.20;1.35;;;;;;;-145.18;100.00;46986.63;5010421;28;20065;-71